windsock image

Welcome to Bigfield Strip.

anemometer image
     

 Help for dials.  
 
Local Met:

Wind:   
10 Min average:  
292 ° / 20.8 kts (22.6)
281° / 19.6

Temperature:  
12.6°C C
Dew Point:  
10.0°C C
QNH:  
Trend:  
992.2 mb mb
-0.9mb/hr
BigField Strip. This image updates approximately every minute, it can have a two minute delay.  
 

Humidity:  
84 %
Sunrise:   05:46z
Sunset:   18:31z
Updated:  
  UTC
 
   More met info, trends, radar, history etc. available here   

LUTON Metar   EGGW 291150Z 24031G42KT 9999 BKN014 12/10 Q0992
 
  TAF   2015/03/29 12:15 TAF TAF EGGW 291056Z 2912/3012 27020KT 9999 SCT025 TEMPO 2912/2918 26025G35KT PROB40 TEMPO 2912/2917 26035G45KT 7000 SHRA PROB30 TEMPO 2917/2922 8000 -SHRA BECMG 2918/2921 27010KT
 
BENSON Metar   EGUB 291150Z AUTO 25025G39KT 9999 // BKN016/// BKN024/// 12/10 Q0995
 
  TAF   2015/03/28 12:45 TAF TAF EGUB 281231Z 2812/2818 CNL
 
Big Field view 1 icon   Big Field view 2 icon   Big Field view 3 icon   Chart AL3a in PDF icon   Chart AL3a in Word icon

WARNING:
This information is provided by the Airstrip unofficial weather station, DO NOT depend on the data provided here for any purpose.
This page is updated for latest Metars & TAF's every 5 minutes. Refresh the browser to check for the lastest.
Page designed for a minimum browser size of 1024x768.
© Copyright 2015 BigField Strip. This page auto generated 12:21 UTC - 29/03/2015   Contact Us
Valid HTML 4.01 Transitional     Windows uptime: 6 Days 9 Hours 49 Minutes 2 Seconds    WD started: 02:38 23/03/15    Free memory: 1507MB     Valid CSS!